FW1426 Weather Reports


Display with metric or nautical units.
time (UTC)temp
F
wind
direction
speed
MPH
gust
MPH
rain 1hr
in
rain 24hr
in
rain mn
in
humidity
%
barometer
mb
20200328124841 36 163 3.0 4.0 0.00 0.00 0.00 71 1022.6
20200328123119 36 150 2.0 5.0 0.00 0.00 0.00 69 1022.3
20200328121630 36 114 2.0 4.0 0.00 0.00 0.00 70 1022.1
20200328120118 36 103 2.0 4.0 0.00 0.00 0.00 72 1021.9
20200328114655 36 103 1.0 3.0 0.00 0.00 0.00 72 1022.0
20200328113058 37 103 2.0 4.0 0.00 0.00 0.00 71 1021.9
20200328111659 36 91 2.0 4.0 0.00 0.00 0.00 72 1022.1
20200328110100 37 91 1.0 3.0 0.00 0.00 0.00 72 1022.0
20200328104553 37 91 1.0 2.0 0.00 0.00 0.00 70 1022.0
20200328103036 38 91 2.0 3.0 0.00 0.00 0.00 68 1022.0
20200328101536 38 91 1.0 4.0 0.00 0.00 0.00 66 1021.9
20200328100133 38 93 2.0 3.0 0.00 0.00 0.00 67 1021.7
20200328094609 39 93 1.0 3.0 0.00 0.00 0.00 66 1021.6
20200328093151 39 91 2.0 4.0 0.00 0.00 0.00 65 1021.5
20200328090133 39 101 0.0 3.0 0.00 0.00 0.00 65 1021.5
20200328084522 39 101 0.0 3.0 0.00 0.00 0.00 65 1021.5
20200328083032 40 101 2.0 4.0 0.00 0.00 0.00 64 1021.6
20200328081544 40 94 2.0 4.0 0.00 0.00 0.00 64 1021.5
20200328080105 40 85 3.0 6.0 0.00 0.00 0.00 66 1021.4
20200328074603 40 70 2.0 6.0 0.00 0.00 0.00 65 1021.4
20200328073032 40 36 1.0 3.0 0.00 0.00 0.00 66 1021.3
20200328071516 40 36 2.0 3.0 0.00 0.00 0.00 65 1021.3
20200328070114 40 277 0.0 0.0 0.00 0.00 0.00 68 1021.1
20200328064518 40 277 0.0 0.0 0.00 0.00 0.00 68 1021.1
20200328063018 41 277 0.0 0.0 0.00 0.00 0.00 65 1021.0
20200328061502 41 277 0.0 0.0 0.00 0.00 0.00 64 1020.8
20200328060304 42 277 0.0 0.0 0.00 0.00 0.00 63 1020.7
20200328054625 42 277 0.0 0.0 0.00 0.00 0.00 59 1020.3
20200328053130 43 277 0.0 0.0 0.00 0.00 0.00 58 1020.1
20200328051636 44 277 0.0 0.0 0.00 0.00 0.00 55 1020.0
20200328050201 44 277 0.0 0.0 0.00 0.00 0.00 53 1019.9
20200328044613 45 278 1.0 3.0 0.00 0.00 0.00 52 1019.8
20200328043120 45 278 1.0 2.0 0.00 0.00 0.00 51 1019.7
20200328041746 47 278 0.0 3.0 0.00 0.00 0.00 47 1019.4
20200328040121 47 273 2.0 6.0 0.00 0.00 0.00 46 1019.3
20200328034551 46 329 1.0 3.0 0.00 0.00 0.00 52 1019.1
20200328033055 46 348 0.0 0.0 0.00 0.00 0.00 51 1018.8
20200328031539 47 348 0.0 0.0 0.00 0.00 0.00 50 1018.5
20200328030117 47 348 0.0 0.0 0.00 0.00 0.00 48 1018.2
20200328024614 48 348 0.0 0.0 0.00 0.00 0.00 45 1018.1
20200328023035 50 348 0.0 0.0 0.00 0.00 0.00 43 1017.7
20200328021531 51 348 1.0 5.0 0.00 0.00 0.00 40 1017.4
20200328020059 53 323 2.0 8.0 0.00 0.00 0.00 36 1017.4
20200328014609 53 302 4.0 9.0 0.00 0.00 0.00 35 1017.4
20200328013044 54 313 6.0 14.0 0.00 0.00 0.00 34 1017.1
20200328011532 54 294 2.0 6.0 0.00 0.00 0.00 35 1016.9
20200328010143 54 309 5.0 10.0 0.00 0.00 0.00 34 1016.8
20200328004554 54 293 7.0 14.0 0.00 0.00 0.00 34 1016.4
20200328003029 55 288 4.0 14.0 0.00 0.00 0.00 35 1016.3
20200328001519 55 350 7.0 13.0 0.00 0.00 0.00 36 1016.3
20200328000123 55 290 7.0 13.0 0.00 0.00 0.00 35 1016.3
20200327234608 54 287 9.0 16.0 0.00 0.00 0.00 37 1016.2
20200327233033 54 306 6.0 14.0 0.00 0.00 0.00 38 1016.1
20200327231605 55 329 8.0 16.0 0.00 0.00 0.00 38 1016.1
20200327230026 53 9 12.0 24.0 0.00 0.00 0.00 40 1015.9
20200327224511 55 310 10.0 18.0 0.00 0.00 0.00 37 1015.6
20200327223035 54 10 6.0 11.0 0.00 0.00 0.00 38 1015.4
20200327221512 54 24 4.0 14.0 0.00 0.00 0.00 37 1015.2
20200327220059 53 280 6.0 20.0 0.00 0.00 0.00 37 1015.2
20200327214517 55 335 12.0 20.0 0.00 0.00 0.00 36 1015.2
20200327213010 55 291 8.0 16.0 0.00 0.00 0.00 36 1015.2
20200327211547 56 259 15.0 23.0 0.00 0.00 0.00 30 1015.0
20200327210015 56 282 11.0 20.0 0.00 0.00 0.00 32 1014.9
20200327204511 55 348 11.0 17.0 0.00 0.00 0.00 36 1014.7
20200327203003 56 315 8.0 18.0 0.00 0.00 0.00 34 1014.8
20200327200146 55 355 7.0 14.0 0.00 0.00 0.00 38 1014.8
20200327194639 53 305 8.0 15.0 0.00 0.00 0.00 42 1014.9
20200327193115 56 309 7.0 16.0 0.00 0.00 0.00 40 1015.0
20200327191633 56 269 4.0 13.0 0.00 0.00 0.00 42 1015.3
20200327190138 55 316 4.0 10.0 0.00 0.00 0.00 43 1015.6
20200327184623 54 309 9.0 20.0 0.00 0.00 0.00 46 1015.7
20200327183132 53 304 10.0 16.0 0.00 0.00 0.00 44 1015.7
20200327181640 53 298 7.0 17.0 0.00 0.00 0.00 45 1015.8
20200327180133 53 275 5.0 18.0 0.00 0.00 0.00 45 1015.7
20200327174638 55 293 11.0 20.0 0.00 0.00 0.00 42 1015.5
20200327173127 55 267 10.0 18.0 0.00 0.00 0.00 42 1015.3
20200327171611 52 275 11.0 19.0 0.00 0.00 0.00 44 1015.3
20200327170055 51 326 9.0 15.0 0.00 0.00 0.00 48 1015.1
20200327164617 52 284 7.0 13.0 0.00 0.00 0.00 47 1015.0
20200327163041 50 335 9.0 15.0 0.00 0.00 0.00 48 1014.8
20200327161546 48 290 5.0 9.0 0.00 0.00 0.00 63 1014.7
20200327160048 48 281 5.0 13.0 0.00 0.00 0.00 62 1014.4
20200327154616 48 298 8.0 15.0 0.00 0.00 0.00 62 1014.5
20200327153058 50 309 12.0 19.0 0.00 0.00 0.00 55 1014.2
20200327151538 49 318 9.0 19.0 0.00 0.00 0.00 52 1013.8
20200327150029 49 317 11.0 19.0 0.00 0.00 0.00 49 1013.8
20200327144520 48 279 6.0 15.0 0.00 0.00 0.00 48 1013.5
20200327143022 48 277 6.0 13.0 0.00 0.00 0.00 50 1013.2
20200327141525 49 241 3.0 8.0 0.00 0.00 0.00 49 1012.8
20200327140028 47 271 3.0 8.0 0.00 0.00 0.00 52 1012.6
20200327134508 47 255 2.0 4.0 0.00 0.00 0.00 53 1012.5
20200327133014 47 269 2.0 4.0 0.00 0.00 0.00 52 1012.2
20200327131502 48 287 1.0 4.0 0.00 0.00 0.00 49 1012.1
20200327130119 48 294 2.0 5.0 0.00 0.00 0.00 47 1011.8